Bookmark and Share
Track history (hours):
 

Maersk Drummond

Last reported at 2014-Apr-11 15:32 UTC. Time now 2014-Apr-20 11:42 UTC.
Position N 01°17' E 103°54'.
Warning: this ship's position is 8 days out of date.

Length 294 m; draft 8.8 m.

Type: Ship (hazmat cat A). MMSI: 636091082.

NotesDate/timePositionNaut miles runAvg speedWind from/ knotsBaromVisibWave heightAir tempDewpointWater temp
2014-Apr-11 15:32N 01°17' E 103°54'0 0.0
2014-Apr-11 14:05N 01°17' E 103°54'0 0.0
2014-Apr-11 11:31N 01°17' E 103°54'0 0.0
2014-Apr-10 21:33N 01°17' E 103°54'0 0.0
2014-Apr-10 16:32N 01°17' E 103°54'0 0.0
2014-Apr-10 15:04N 01°17' E 103°54'0 0.0
2014-Apr-09 23:31N 01°17' E 103°54'0 0.0
2014-Apr-09 18:25N 01°17' E 103°54'0 0.0
2014-Apr-09 16:27N 01°17' E 103°54'0 0.1
2014-Apr-09 15:24N 01°17' E 103°54'0 0.0
2014-Apr-08 23:30N 01°17' E 103°54'0 0.0
2014-Apr-08 20:26N 01°17' E 103°54'0 0.0
2014-Apr-08 19:26N 01°17' E 103°54'0 0.1
2014-Apr-08 18:29N 01°17' E 103°54'0 0.0
2014-Apr-08 17:33N 01°17' E 103°54'0 0.1
2014-Apr-08 16:17N 01°17' E 103°54'0 0.1
2014-Apr-08 15:29N 01°17' E 103°54'0 0.0
2014-Apr-08 14:33N 01°17' E 103°54'0 0.0
2014-Apr-08 13:26N 01°17' E 103°54'0 0.0
2014-Apr-08 11:13N 01°17' E 103°54'3 0.3
2014-Apr-07 23:32N 01°15' E 103°56'8 8.6
2014-Apr-07 22:33N 01°13' E 103°48'5 4.8
2014-Apr-07 21:32N 01°17' E 103°46'0 0.0
2014-Apr-07 20:29N 01°17' E 103°46'0 0.0
2014-Apr-07 19:32N 01°17' E 103°46'0 0.0
2014-Apr-07 17:32N 01°17' E 103°46'0 0.0
2014-Apr-07 16:29N 01°17' E 103°46'0 0.0
2014-Apr-07 15:32N 01°17' E 103°46'0 0.0
2014-Apr-07 14:26N 01°17' E 103°46'0 0.0
2014-Apr-07 13:32N 01°17' E 103°46'0 0.0
2014-Apr-07 12:32N 01°17' E 103°46'0 0.0
2014-Apr-07 11:32N 01°17' E 103°46'0 0.0
2014-Apr-07 10:32N 01°17' E 103°46'0 0.0
2014-Apr-07 09:32N 01°17' E 103°46'0 0.0
2014-Apr-07 08:32N 01°17' E 103°46'0 0.0
2014-Apr-07 07:26N 01°17' E 103°46'0 0.0
2014-Apr-07 06:29N 01°17' E 103°46'0 0.0
2014-Apr-07 05:32N 01°17' E 103°46'0 0.0
2014-Apr-07 04:26N 01°17' E 103°46'0 0.0
2014-Apr-07 03:32N 01°17' E 103°46'0 0.0
2014-Apr-07 02:33N 01°17' E 103°46'0 0.0
2014-Apr-07 01:33N 01°17' E 103°46'0 0.0
2014-Apr-07 00:33N 01°17' E 103°46'1 1.0
2014-Apr-06 23:33N 01°17' E 103°45'3 2.7
2014-Apr-06 22:33N 01°15' E 103°46'1010.3
2014-Apr-06 21:33N 01°12' E 103°36'6 6.2
2014-Apr-06 20:33N 01°09' E 103°30'3 2.6
2014-Apr-06 19:33N 01°10' E 103°28'3 3.1
2014-Apr-06 18:33N 01°12' E 103°25'5 4.9
2014-Apr-06 17:31N 01°15' E 103°21'  

Dump ship's entire track history

sailing weather and tide predictions

Maersk Drummond — A8JF3 — position and weather